sensor_id;sensor_type;location;lat;lon;timestamp;pressure;altitude;pressure_sealevel;temperature;humidity
71194;BME280;58903;47.210;8.618;2022-12-18T00:00:01;94924.25;;;25.31;40.57
71194;BME280;58903;47.210;8.618;2022-12-18T00:02:37;94910.50;;;25.31;40.67
71194;BME280;58903;47.210;8.618;2022-12-18T00:05:03;94913.25;;;25.31;40.59
71194;BME280;58903;47.210;8.618;2022-12-18T00:07:29;94908.72;;;25.28;40.50
71194;BME280;58903;47.210;8.618;2022-12-18T00:09:55;94911.72;;;25.30;40.74
71194;BME280;58903;47.210;8.618;2022-12-18T00:12:21;94898.47;;;25.28;40.72
71194;BME280;58903;47.210;8.618;2022-12-18T00:14:48;94904.72;;;25.29;40.73
71194;BME280;58903;47.210;8.618;2022-12-18T00:17:43;94920.75;;;25.30;41.42
71194;BME280;58903;47.210;8.618;2022-12-18T00:20:44;94925.50;;;25.30;41.33
71194;BME280;58903;47.210;8.618;2022-12-18T00:23:41;94939.25;;;25.30;40.98
71194;BME280;58903;47.210;8.618;2022-12-18T00:26:22;94945.53;;;25.30;40.78
71194;BME280;58903;47.210;8.618;2022-12-18T00:29:09;94955.78;;;25.30;41.10
71194;BME280;58903;47.210;8.618;2022-12-18T00:31:53;94955.78;;;25.30;41.19
71194;BME280;58903;47.210;8.618;2022-12-18T00:34:19;94961.28;;;25.30;40.47
71194;BME280;58903;47.210;8.618;2022-12-18T00:36:49;94967.28;;;25.28;40.74
71194;BME280;58903;47.210;8.618;2022-12-18T00:39:24;94966.53;;;25.28;40.93
71194;BME280;58903;47.210;8.618;2022-12-18T00:42:02;94961.03;;;25.28;40.54
71194;BME280;58903;47.210;8.618;2022-12-18T00:44:46;94946.50;;;25.27;40.58
71194;BME280;58903;47.210;8.618;2022-12-18T00:47:29;94947.25;;;25.28;40.28
71194;BME280;58903;47.210;8.618;2022-12-18T00:49:55;94944.50;;;25.28;40.88
71194;BME280;58903;47.210;8.618;2022-12-18T00:52:21;94940.25;;;25.27;40.60
71194;BME280;58903;47.210;8.618;2022-12-18T00:55:03;94932.72;;;25.27;40.89
71194;BME280;58903;47.210;8.618;2022-12-18T00:57:35;94936.75;;;25.26;40.69
71194;BME280;58903;47.210;8.618;2022-12-18T01:00:12;94937.00;;;25.28;40.80
71194;BME280;58903;47.210;8.618;2022-12-18T01:02:45;94944.50;;;25.28;40.44
71194;BME280;58903;47.210;8.618;2022-12-18T01:05:17;94943.03;;;25.27;40.41
71194;BME280;58903;47.210;8.618;2022-12-18T01:07:43;94952.78;;;25.28;40.44
71194;BME280;58903;47.210;8.618;2022-12-18T01:10:11;94956.03;;;25.26;40.32
71194;BME280;58903;47.210;8.618;2022-12-18T01:12:40;94949.25;;;25.27;40.80
71194;BME280;58903;47.210;8.618;2022-12-18T01:15:18;94952.50;;;25.26;40.40
71194;BME280;58903;47.210;8.618;2022-12-18T01:17:52;94952.50;;;25.26;40.08
71194;BME280;58903;47.210;8.618;2022-12-18T01:20:24;94954.75;;;25.27;40.80
71194;BME280;58903;47.210;8.618;2022-12-18T01:22:50;94955.53;;;25.28;41.01
71194;BME280;58903;47.210;8.618;2022-12-18T01:25:43;94955.03;;;25.29;40.92
71194;BME280;58903;47.210;8.618;2022-12-18T01:28:10;94956.78;;;25.27;40.57
71194;BME280;58903;47.210;8.618;2022-12-18T01:30:49;94958.28;;;25.28;40.25
71194;BME280;58903;47.210;8.618;2022-12-18T01:33:33;94966.53;;;25.28;40.67
71194;BME280;58903;47.210;8.618;2022-12-18T01:36:03;94967.81;;;25.27;40.12
71194;BME280;58903;47.210;8.618;2022-12-18T01:38:41;94981.56;;;25.27;40.28
71194;BME280;58903;47.210;8.618;2022-12-18T01:41:35;94983.56;;;25.26;40.87
71194;BME280;58903;47.210;8.618;2022-12-18T01:50:41;94980.31;;;25.28;40.38
71194;BME280;58903;47.210;8.618;2022-12-18T01:53:23;94974.03;;;25.27;40.20
71194;BME280;58903;47.210;8.618;2022-12-18T01:56:25;94969.28;;;25.28;39.86
71194;BME280;58903;47.210;8.618;2022-12-18T01:59:03;94977.53;;;25.28;40.12
71194;BME280;58903;47.210;8.618;2022-12-18T02:01:32;94986.56;;;25.28;40.48
71194;BME280;58903;47.210;8.618;2022-12-18T02:04:33;94992.84;;;25.29;39.94
71194;BME280;58903;47.210;8.618;2022-12-18T02:09:48;94987.06;;;25.27;40.74
71194;BME280;58903;47.210;8.618;2022-12-18T02:12:23;94984.31;;;25.27;40.43
71194;BME280;58903;47.210;8.618;2022-12-18T02:18:32;94985.81;;;25.28;40.39
71194;BME280;58903;47.210;8.618;2022-12-18T02:30:01;94995.59;;;25.29;40.64
71194;BME280;58903;47.210;8.618;2022-12-18T02:33:01;94991.31;;;25.28;40.82
71194;BME280;58903;47.210;8.618;2022-12-18T02:35:34;94993.81;;;25.26;40.73
71194;BME280;58903;47.210;8.618;2022-12-18T02:38:11;94999.31;;;25.26;40.22
71194;BME280;58903;47.210;8.618;2022-12-18T02:40:40;94992.31;;;25.25;40.02
71194;BME280;58903;47.210;8.618;2022-12-18T02:43:24;94993.31;;;25.27;40.15
71194;BME280;58903;47.210;8.618;2022-12-18T02:49:11;94988.31;;;25.26;40.14
71194;BME280;58903;47.210;8.618;2022-12-18T02:57:55;94986.06;;;25.24;40.04
71194;BME280;58903;47.210;8.618;2022-12-18T03:03:55;94991.06;;;25.26;39.64
71194;BME280;58903;47.210;8.618;2022-12-18T03:06:43;94991.56;;;25.24;39.95
71194;BME280;58903;47.210;8.618;2022-12-18T03:09:21;94996.56;;;25.26;40.13
71194;BME280;58903;47.210;8.618;2022-12-18T03:11:56;94990.31;;;25.25;39.71
71194;BME280;58903;47.210;8.618;2022-12-18T03:15:24;94991.06;;;25.26;39.72
71194;BME280;58903;47.210;8.618;2022-12-18T03:20:48;94989.56;;;25.25;40.09
71194;BME280;58903;47.210;8.618;2022-12-18T03:23:25;94990.81;;;25.24;40.05
71194;BME280;58903;47.210;8.618;2022-12-18T03:25:57;95006.09;;;25.25;39.78
71194;BME280;58903;47.210;8.618;2022-12-18T03:28:47;95008.84;;;25.25;40.09
71194;BME280;58903;47.210;8.618;2022-12-18T03:31:31;95012.81;;;25.24;40.10
71194;BME280;58903;47.210;8.618;2022-12-18T03:34:23;95016.09;;;25.22;40.20
71194;BME280;58903;47.210;8.618;2022-12-18T03:40:15;95018.06;;;25.22;40.43
71194;BME280;58903;47.210;8.618;2022-12-18T03:43:08;95027.81;;;25.23;40.25
71194;BME280;58903;47.210;8.618;2022-12-18T03:46:17;95020.06;;;25.21;40.72
71194;BME280;58903;47.210;8.618;2022-12-18T03:49:03;95031.84;;;25.22;39.82
71194;BME280;58903;47.210;8.618;2022-12-18T03:52:02;95034.09;;;25.23;40.59
71194;BME280;58903;47.210;8.618;2022-12-18T03:54:44;95031.84;;;25.22;40.64
71194;BME280;58903;47.210;8.618;2022-12-18T03:57:23;95032.59;;;25.22;39.74
71194;BME280;58903;47.210;8.618;2022-12-18T04:00:05;95048.34;;;25.22;40.10
71194;BME280;58903;47.210;8.618;2022-12-18T04:02:44;95047.59;;;25.21;40.28
71194;BME280;58903;47.210;8.618;2022-12-18T04:05:47;95048.84;;;25.20;40.54
71194;BME280;58903;47.210;8.618;2022-12-18T04:08:15;95052.84;;;25.19;40.26
71194;BME280;58903;47.210;8.618;2022-12-18T04:10:50;95053.88;;;25.22;39.78
71194;BME280;58903;47.210;8.618;2022-12-18T04:13:31;95058.09;;;25.23;40.26
71194;BME280;58903;47.210;8.618;2022-12-18T04:19:35;95048.84;;;25.20;40.44
71194;BME280;58903;47.210;8.618;2022-12-18T04:22:00;95048.84;;;25.20;40.71
71194;BME280;58903;47.210;8.618;2022-12-18T04:24:28;95049.34;;;25.19;40.07
71194;BME280;58903;47.210;8.618;2022-12-18T04:26:59;95047.06;;;25.17;40.08
71194;BME280;58903;47.210;8.618;2022-12-18T04:29:44;95056.34;;;25.20;40.40
71194;BME280;58903;47.210;8.618;2022-12-18T04:32:19;95063.84;;;25.19;40.47
71194;BME280;58903;47.210;8.618;2022-12-18T04:34:46;95066.59;;;25.19;39.75
71194;BME280;58903;47.210;8.618;2022-12-18T04:37:21;95076.13;;;25.18;40.74
71194;BME280;58903;47.210;8.618;2022-12-18T04:40:04;95079.16;;;25.20;40.08
71194;BME280;58903;47.210;8.618;2022-12-18T04:42:31;95078.88;;;25.18;39.78
71194;BME280;58903;47.210;8.618;2022-12-18T04:45:08;95079.88;;;25.21;40.20
71194;BME280;58903;47.210;8.618;2022-12-18T04:48:03;95079.88;;;25.21;39.65
71194;BME280;58903;47.210;8.618;2022-12-18T04:50:40;95081.41;;;25.22;40.18
71194;BME280;58903;47.210;8.618;2022-12-18T04:53:05;95079.16;;;25.20;39.95
71194;BME280;58903;47.210;8.618;2022-12-18T04:55:42;95070.88;;;25.20;39.58
71194;BME280;58903;47.210;8.618;2022-12-18T04:58:14;95079.88;;;25.21;39.79
71194;BME280;58903;47.210;8.618;2022-12-18T05:00:45;95079.88;;;25.21;40.44
71194;BME280;58903;47.210;8.618;2022-12-18T05:03:13;95084.66;;;25.20;39.96
71194;BME280;58903;47.210;8.618;2022-12-18T05:05:50;95088.63;;;25.19;40.24
71194;BME280;58903;47.210;8.618;2022-12-18T05:08:18;95086.63;;;25.20;39.99
71194;BME280;58903;47.210;8.618;2022-12-18T05:10:44;95084.66;;;25.20;40.33
71194;BME280;58903;47.210;8.618;2022-12-18T05:13:11;95090.16;;;25.20;39.85
71194;BME280;58903;47.210;8.618;2022-12-18T05:15:40;95079.88;;;25.21;40.55
71194;BME280;58903;47.210;8.618;2022-12-18T05:18:11;95071.63;;;25.21;40.40
71194;BME280;58903;47.210;8.618;2022-12-18T05:20:37;95078.66;;;25.22;39.80
71194;BME280;58903;47.210;8.618;2022-12-18T05:23:03;95079.63;;;25.19;40.26
71194;BME280;58903;47.210;8.618;2022-12-18T05:25:34;95074.59;;;25.17;40.07
71194;BME280;58903;47.210;8.618;2022-12-18T05:28:05;95088.63;;;25.19;40.60
71194;BME280;58903;47.210;8.618;2022-12-18T05:30:34;95076.84;;;25.19;40.22
71194;BME280;58903;47.210;8.618;2022-12-18T05:33:09;95076.84;;;25.19;40.30
71194;BME280;58903;47.210;8.618;2022-12-18T05:35:38;95075.63;;;25.20;40.29
71194;BME280;58903;47.210;8.618;2022-12-18T05:38:17;95074.38;;;25.21;40.55
71194;BME280;58903;47.210;8.618;2022-12-18T05:40:51;95075.13;;;25.21;40.09
71194;BME280;58903;47.210;8.618;2022-12-18T05:43:24;95078.66;;;25.22;40.30
71194;BME280;58903;47.210;8.618;2022-12-18T05:45:51;95070.63;;;25.18;39.66
71194;BME280;58903;47.210;8.618;2022-12-18T05:48:24;95080.38;;;25.19;40.09
71194;BME280;58903;47.210;8.618;2022-12-18T05:50:53;95082.38;;;25.19;39.67
71194;BME280;58903;47.210;8.618;2022-12-18T05:53:25;95073.84;;;25.17;40.25
71194;BME280;58903;47.210;8.618;2022-12-18T05:55:59;95080.13;;;25.17;40.17
71194;BME280;58903;47.210;8.618;2022-12-18T05:58:39;95076.84;;;25.19;40.21
71194;BME280;58903;47.210;8.618;2022-12-18T06:01:22;95082.38;;;25.19;40.39
71194;BME280;58903;47.210;8.618;2022-12-18T06:03:53;95079.34;;;25.17;40.03
71194;BME280;58903;47.210;8.618;2022-12-18T06:06:27;95082.63;;;25.21;39.62
71194;BME280;58903;47.210;8.618;2022-12-18T06:08:55;95076.38;;;25.20;40.31
71194;BME280;58903;47.210;8.618;2022-12-18T06:11:32;95083.38;;;25.21;40.14
71194;BME280;58903;47.210;8.618;2022-12-18T06:14:25;95081.41;;;25.22;39.71
71194;BME280;58903;47.210;8.618;2022-12-18T06:17:05;95088.13;;;25.21;39.98
71194;BME280;58903;47.210;8.618;2022-12-18T06:19:33;95085.38;;;25.21;40.32
71194;BME280;58903;47.210;8.618;2022-12-18T06:21:58;95088.63;;;25.19;40.49
71194;BME280;58903;47.210;8.618;2022-12-18T06:24:27;95092.91;;;25.20;39.81
71194;BME280;58903;47.210;8.618;2022-12-18T06:26:53;95104.38;;;25.19;39.83
71194;BME280;58903;47.210;8.618;2022-12-18T06:29:23;95103.91;;;25.20;39.71
71194;BME280;58903;47.210;8.618;2022-12-18T06:31:55;95111.41;;;25.20;40.29
71194;BME280;58903;47.210;8.618;2022-12-18T06:34:34;95108.41;;;25.18;39.85
71194;BME280;58903;47.210;8.618;2022-12-18T06:37:08;95112.19;;;25.20;39.82
71194;BME280;58903;47.210;8.618;2022-12-18T06:39:36;95112.19;;;25.20;40.29
71194;BME280;58903;47.210;8.618;2022-12-18T06:42:09;95115.66;;;25.21;40.57
71194;BME280;58903;47.210;8.618;2022-12-18T06:44:49;95113.41;;;25.19;40.12
71194;BME280;58903;47.210;8.618;2022-12-18T06:47:21;95113.47;;;25.25;39.84
71194;BME280;58903;47.210;8.618;2022-12-18T06:49:49;95115.75;;;25.32;39.62
71194;BME280;58903;47.210;8.618;2022-12-18T06:52:28;95117.00;;;25.31;39.63
71194;BME280;58903;47.210;8.618;2022-12-18T06:55:00;95119.78;;;25.36;40.03
71194;BME280;58903;47.210;8.618;2022-12-18T06:57:32;95130.31;;;25.38;39.64
71194;BME280;58903;47.210;8.618;2022-12-18T07:03:40;95146.88;;;25.43;39.43
71194;BME280;58903;47.210;8.618;2022-12-18T07:06:30;95147.66;;;25.44;39.21
71194;BME280;58903;47.210;8.618;2022-12-18T07:09:01;95149.91;;;25.46;39.26
71194;BME280;58903;47.210;8.618;2022-12-18T07:11:36;95158.16;;;25.46;39.82
71194;BME280;58903;47.210;8.618;2022-12-18T07:14:03;95156.94;;;25.47;39.34
71194;BME280;58903;47.210;8.618;2022-12-18T07:16:44;95160.91;;;25.46;39.53
71194;BME280;58903;47.210;8.618;2022-12-18T07:19:17;95164.69;;;25.48;38.94
71194;BME280;58903;47.210;8.618;2022-12-18T07:21:49;95170.72;;;25.47;39.17
71194;BME280;58903;47.210;8.618;2022-12-18T07:24:15;95171.19;;;25.45;39.70
71194;BME280;58903;47.210;8.618;2022-12-18T07:26:41;95176.22;;;25.47;39.02
71194;BME280;58903;47.210;8.618;2022-12-18T07:29:12;95180.47;;;25.48;39.55
71194;BME280;58903;47.210;8.618;2022-12-18T07:31:51;95183.47;;;25.50;39.48
71194;BME280;58903;47.210;8.618;2022-12-18T07:34:17;95183.47;;;25.50;39.37
71194;BME280;58903;47.210;8.618;2022-12-18T07:36:43;95187.75;;;25.51;39.95
71194;BME280;58903;47.210;8.618;2022-12-18T07:39:12;95192.25;;;25.48;39.14
71194;BME280;58903;47.210;8.618;2022-12-18T07:41:42;95186.72;;;25.48;40.00
71194;BME280;58903;47.210;8.618;2022-12-18T07:44:37;95188.22;;;25.49;39.71
71194;BME280;58903;47.210;8.618;2022-12-18T07:47:05;95194.72;;;25.46;40.07
71194;BME280;58903;47.210;8.618;2022-12-18T07:49:31;95195.50;;;25.47;39.89
71194;BME280;58903;47.210;8.618;2022-12-18T07:51:58;95184.94;;;25.45;40.04
71194;BME280;58903;47.210;8.618;2022-12-18T07:54:34;95185.94;;;25.42;39.79
71194;BME280;58903;47.210;8.618;2022-12-18T07:57:07;95179.66;;;25.41;39.91
71194;BME280;58903;47.210;8.618;2022-12-18T07:59:33;95187.66;;;25.39;40.19
71194;BME280;58903;47.210;8.618;2022-12-18T08:01:59;95190.91;;;25.38;40.22
71194;BME280;58903;47.210;8.618;2022-12-18T08:04:25;95192.66;;;25.41;40.47
71194;BME280;58903;47.210;8.618;2022-12-18T08:06:59;95201.41;;;25.39;40.09
71194;BME280;58903;47.210;8.618;2022-12-18T08:09:30;95201.97;;;25.43;40.23
71194;BME280;58903;47.210;8.618;2022-12-18T08:11:55;95194.72;;;25.46;39.96
71194;BME280;58903;47.210;8.618;2022-12-18T08:14:23;95201.25;;;25.49;39.30
71194;BME280;58903;47.210;8.618;2022-12-18T08:16:52;95201.03;;;25.52;39.23
71194;BME280;58903;47.210;8.618;2022-12-18T08:19:21;95212.03;;;25.52;39.56
71194;BME280;58903;47.210;8.618;2022-12-18T08:21:49;95207.03;;;25.51;39.36
71194;BME280;58903;47.210;8.618;2022-12-18T08:24:15;95207.78;;;25.51;39.17
71194;BME280;58903;47.210;8.618;2022-12-18T08:26:41;95214.03;;;25.52;38.67
71194;BME280;58903;47.210;8.618;2022-12-18T08:29:11;95213.78;;;25.50;38.59
71194;BME280;58903;47.210;8.618;2022-12-18T08:32:08;95223.50;;;25.45;39.10
71194;BME280;58903;47.210;8.618;2022-12-18T08:34:38;95218.69;;;25.40;39.07
71194;BME280;58903;47.210;8.618;2022-12-18T08:37:05;95216.66;;;25.35;40.03
71194;BME280;58903;47.210;8.618;2022-12-18T08:39:43;95222.41;;;25.31;39.97
71194;BME280;58903;47.210;8.618;2022-12-18T08:42:12;95231.13;;;25.30;39.91
71194;BME280;58903;47.210;8.618;2022-12-18T08:44:57;95227.59;;;25.29;39.91
71194;BME280;58903;47.210;8.618;2022-12-18T08:47:31;95222.34;;;25.26;40.84
71194;BME280;58903;47.210;8.618;2022-12-18T08:49:58;95221.09;;;25.27;40.45
71194;BME280;58903;47.210;8.618;2022-12-18T08:52:24;95227.34;;;25.27;40.23
71194;BME280;58903;47.210;8.618;2022-12-18T08:54:59;95227.84;;;25.26;40.57
71194;BME280;58903;47.210;8.618;2022-12-18T08:57:27;95229.63;;;25.29;40.39
71194;BME280;58903;47.210;8.618;2022-12-18T08:59:57;95232.38;;;25.29;40.36
71194;BME280;58903;47.210;8.618;2022-12-18T09:02:26;95217.09;;;25.28;40.88
71194;BME280;58903;47.210;8.618;2022-12-18T09:04:52;95216.13;;;25.31;40.50
71194;BME280;58903;47.210;8.618;2022-12-18T09:07:30;95207.88;;;25.31;41.03
71194;BME280;58903;47.210;8.618;2022-12-18T09:10:04;95204.84;;;25.29;40.55
71194;BME280;58903;47.210;8.618;2022-12-18T09:12:39;95201.84;;;25.27;41.07
71194;BME280;58903;47.210;8.618;2022-12-18T09:15:14;95189.56;;;25.28;40.87
71194;BME280;58903;47.210;8.618;2022-12-18T09:17:49;95195.06;;;25.28;40.14
71194;BME280;58903;47.210;8.618;2022-12-18T09:20:19;95192.31;;;25.28;40.62
71194;BME280;58903;47.210;8.618;2022-12-18T09:22:44;95197.56;;;25.26;40.69
71194;BME280;58903;47.210;8.618;2022-12-18T09:25:12;95204.09;;;25.28;41.01
71194;BME280;58903;47.210;8.618;2022-12-18T09:27:39;95201.09;;;25.32;40.90
71194;BME280;58903;47.210;8.618;2022-12-18T09:30:10;95198.84;;;25.30;40.99
71194;BME280;58903;47.210;8.618;2022-12-18T09:32:43;95193.31;;;25.25;41.41
71194;BME280;58903;47.210;8.618;2022-12-18T09:35:15;95196.06;;;25.25;40.79
71194;BME280;58903;47.210;8.618;2022-12-18T09:37:44;95196.06;;;25.25;40.77
71194;BME280;58903;47.210;8.618;2022-12-18T09:40:21;95198.31;;;25.26;41.12
71194;BME280;58903;47.210;8.618;2022-12-18T09:42:57;95198.31;;;25.26;40.97
71194;BME280;58903;47.210;8.618;2022-12-18T09:45:41;95192.03;;;25.26;40.88
71194;BME280;58903;47.210;8.618;2022-12-18T09:48:36;95188.06;;;25.27;41.21
71194;BME280;58903;47.210;8.618;2022-12-18T09:54:38;95190.06;;;25.26;40.66
71194;BME280;58903;47.210;8.618;2022-12-18T09:57:39;95192.03;;;25.26;40.69
71194;BME280;58903;47.210;8.618;2022-12-18T10:00:19;95195.31;;;25.24;41.35
71194;BME280;58903;47.210;8.618;2022-12-18T10:03:00;95193.31;;;25.25;40.66
71194;BME280;58903;47.210;8.618;2022-12-18T10:15:24;95207.81;;;25.25;41.07
71194;BME280;58903;47.210;8.618;2022-12-18T10:21:03;95213.31;;;25.25;41.05
71194;BME280;58903;47.210;8.618;2022-12-18T10:24:29;95204.84;;;25.29;40.73
71194;BME280;58903;47.210;8.618;2022-12-18T10:26:32;95208.63;;;25.31;40.48
71194;BME280;58903;47.210;8.618;2022-12-18T10:29:16;95206.88;;;25.34;40.54
71194;BME280;58903;47.210;8.618;2022-12-18T10:31:46;95203.66;;;25.35;41.00
71194;BME280;58903;47.210;8.618;2022-12-18T10:34:21;95210.91;;;25.38;41.01
71194;BME280;58903;47.210;8.618;2022-12-18T10:36:49;95208.16;;;25.38;40.41
71194;BME280;58903;47.210;8.618;2022-12-18T10:39:23;95207.69;;;25.40;40.55
71194;BME280;58903;47.210;8.618;2022-12-18T10:42:10;95224.78;;;25.44;40.48
71194;BME280;58903;47.210;8.618;2022-12-18T10:44:38;95214.50;;;25.45;40.49
71194;BME280;58903;47.210;8.618;2022-12-18T10:47:06;95216.53;;;25.50;40.65
71194;BME280;58903;47.210;8.618;2022-12-18T10:49:47;95217.03;;;25.48;41.17
71194;BME280;58903;47.210;8.618;2022-12-18T10:52:23;95218.00;;;25.45;40.64
71194;BME280;58903;47.210;8.618;2022-12-18T10:55:16;95208.75;;;25.48;41.33
71194;BME280;58903;47.210;8.618;2022-12-18T10:57:44;95206.00;;;25.48;40.75
71194;BME280;58903;47.210;8.618;2022-12-18T11:00:30;95219.78;;;25.48;41.23
71194;BME280;58903;47.210;8.618;2022-12-18T11:02:56;95226.78;;;25.49;41.00
71194;BME280;58903;47.210;8.618;2022-12-18T11:05:33;95228.31;;;25.50;40.86
71194;BME280;58903;47.210;8.618;2022-12-18T11:08:03;95229.06;;;25.51;40.81
71194;BME280;58903;47.210;8.618;2022-12-18T11:10:35;95226.56;;;25.53;40.90
71194;BME280;58903;47.210;8.618;2022-12-18T11:16:24;95220.84;;;25.56;40.92
71194;BME280;58903;47.210;8.618;2022-12-18T11:19:20;95214.84;;;25.58;40.54
71194;BME280;58903;47.210;8.618;2022-12-18T11:21:48;95208.59;;;25.57;40.39
71194;BME280;58903;47.210;8.618;2022-12-18T11:24:30;95204.56;;;25.58;40.20
71194;BME280;58903;47.210;8.618;2022-12-18T11:27:00;95200.31;;;25.57;41.03
71194;BME280;58903;47.210;8.618;2022-12-18T11:29:36;95190.78;;;25.58;41.24
71194;BME280;58903;47.210;8.618;2022-12-18T11:32:35;95186.53;;;25.57;41.25
71194;BME280;58903;47.210;8.618;2022-12-18T11:38:05;95182.78;;;25.60;40.93
71194;BME280;58903;47.210;8.618;2022-12-18T11:40:40;95176.03;;;25.61;41.04
71194;BME280;58903;47.210;8.618;2022-12-18T11:46:00;95156.75;;;25.61;41.49
71194;BME280;58903;47.210;8.618;2022-12-18T11:51:44;95162.78;;;25.65;41.55
71194;BME280;58903;47.210;8.618;2022-12-18T11:54:20;95165.03;;;25.61;41.24
71194;BME280;58903;47.210;8.618;2022-12-18T11:56:53;95158.03;;;25.66;40.64
71194;BME280;58903;47.210;8.618;2022-12-18T11:59:47;95154.53;;;25.65;41.15
71194;BME280;58903;47.210;8.618;2022-12-18T12:05:42;95163.81;;;25.68;41.42
71194;BME280;58903;47.210;8.618;2022-12-18T12:28:47;95163.75;;;25.57;41.94
71194;BME280;58903;47.210;8.618;2022-12-18T12:31:35;95151.44;;;25.52;41.14
71194;BME280;58903;47.210;8.618;2022-12-18T12:39:42;95147.47;;;25.53;41.95
71194;BME280;58903;47.210;8.618;2022-12-18T12:42:38;95140.16;;;25.50;41.61
71194;BME280;58903;47.210;8.618;2022-12-18T12:45:34;95141.91;;;25.48;41.43
71194;BME280;58903;47.210;8.618;2022-12-18T12:48:05;95144.16;;;25.49;42.14
71194;BME280;58903;47.210;8.618;2022-12-18T12:50:52;95143.44;;;25.49;41.68
71194;BME280;58903;47.210;8.618;2022-12-18T12:53:31;95132.41;;;25.49;41.89
71194;BME280;58903;47.210;8.618;2022-12-18T12:56:01;95124.88;;;25.49;41.77
71194;BME280;58903;47.210;8.618;2022-12-18T12:59:19;95129.16;;;25.50;41.94
71194;BME280;58903;47.210;8.618;2022-12-18T13:02:06;95123.63;;;25.50;41.98
71194;BME280;58903;47.210;8.618;2022-12-18T13:08:51;95119.66;;;25.51;41.93
71194;BME280;58903;47.210;8.618;2022-12-18T13:14:50;95117.16;;;25.53;41.48
71194;BME280;58903;47.210;8.618;2022-12-18T13:25:45;95139.66;;;25.52;42.38
71194;BME280;58903;47.210;8.618;2022-12-18T13:28:16;95135.41;;;25.51;42.08
71194;BME280;58903;47.210;8.618;2022-12-18T13:30:47;95132.16;;;25.52;42.07
71194;BME280;58903;47.210;8.618;2022-12-18T13:45:39;95144.16;;;25.49;42.07
71194;BME280;58903;47.210;8.618;2022-12-18T13:48:16;95144.91;;;25.50;42.30
71194;BME280;58903;47.210;8.618;2022-12-18T13:51:05;95147.19;;;25.51;41.97
71194;BME280;58903;47.210;8.618;2022-12-18T13:53:50;95144.16;;;25.49;42.51
71194;BME280;58903;47.210;8.618;2022-12-18T13:56:31;95140.94;;;25.51;42.78
71194;BME280;58903;47.210;8.618;2022-12-18T13:59:18;95154.47;;;25.54;42.75
71194;BME280;58903;47.210;8.618;2022-12-18T14:04:54;95148.69;;;25.52;42.04
71194;BME280;58903;47.210;8.618;2022-12-18T14:07:29;95151.72;;;25.54;42.71
71194;BME280;58903;47.210;8.618;2022-12-18T14:09:58;95143.69;;;25.56;42.50
71194;BME280;58903;47.210;8.618;2022-12-18T14:13:02;95148.44;;;25.56;42.73
71194;BME280;58903;47.210;8.618;2022-12-18T14:15:48;95151.72;;;25.54;41.86
71194;BME280;58903;47.210;8.618;2022-12-18T14:21:52;95150.47;;;25.55;42.11
71194;BME280;58903;47.210;8.618;2022-12-18T14:24:21;95144.72;;;25.59;41.71
71194;BME280;58903;47.210;8.618;2022-12-18T14:26:50;95151.75;;;25.60;41.52
71194;BME280;58903;47.210;8.618;2022-12-18T14:29:30;95156.25;;;25.57;41.85
71194;BME280;58903;47.210;8.618;2022-12-18T14:32:10;95158.50;;;25.59;41.69
71194;BME280;58903;47.210;8.618;2022-12-18T14:34:38;95152.22;;;25.58;42.09
71194;BME280;58903;47.210;8.618;2022-12-18T14:37:36;95148.75;;;25.63;40.65
71194;BME280;58903;47.210;8.618;2022-12-18T14:40:12;95143.25;;;25.63;39.30
71194;BME280;58903;47.210;8.618;2022-12-18T14:42:39;95146.25;;;25.65;38.50
71194;BME280;58903;47.210;8.618;2022-12-18T14:45:44;95156.75;;;25.61;38.92
71194;BME280;58903;47.210;8.618;2022-12-18T14:48:46;95154.50;;;25.60;38.21
71194;BME280;58903;47.210;8.618;2022-12-18T14:51:28;95146.25;;;25.60;38.55
71194;BME280;58903;47.210;8.618;2022-12-18T14:54:13;95139.22;;;25.59;39.24
71194;BME280;58903;47.210;8.618;2022-12-18T14:56:47;95137.22;;;25.59;38.39
71194;BME280;58903;47.210;8.618;2022-12-18T14:59:17;95134.72;;;25.61;38.53
71194;BME280;58903;47.210;8.618;2022-12-18T15:02:22;95142.75;;;25.65;38.54
71194;BME280;58903;47.210;8.618;2022-12-18T15:05:05;95133.75;;;25.64;38.50
71194;BME280;58903;47.210;8.618;2022-12-18T15:07:55;95141.50;;;25.66;38.01
71194;BME280;58903;47.210;8.618;2022-12-18T15:10:49;95146.25;;;25.65;38.64
71194;BME280;58903;47.210;8.618;2022-12-18T15:13:35;95140.00;;;25.65;38.14
71194;BME280;58903;47.210;8.618;2022-12-18T15:16:12;95140.50;;;25.63;38.58
71194;BME280;58903;47.210;8.618;2022-12-18T15:18:42;95143.75;;;25.67;37.92
71194;BME280;58903;47.210;8.618;2022-12-18T15:21:11;95130.22;;;25.64;38.59
71194;BME280;58903;47.210;8.618;2022-12-18T15:26:13;95135.50;;;25.67;38.16
71194;BME280;58903;47.210;8.618;2022-12-18T15:34:01;95134.47;;;25.65;38.34
71194;BME280;58903;47.210;8.618;2022-12-18T15:36:32;95141.25;;;25.64;38.66
71194;BME280;58903;47.210;8.618;2022-12-18T15:39:02;95137.72;;;25.63;37.95
71194;BME280;58903;47.210;8.618;2022-12-18T15:41:35;95143.00;;;25.61;38.17
71194;BME280;58903;47.210;8.618;2022-12-18T15:44:22;95133.44;;;25.57;38.33
71194;BME280;58903;47.210;8.618;2022-12-18T15:46:49;95137.94;;;25.54;38.91
71194;BME280;58903;47.210;8.618;2022-12-18T15:49:17;95130.44;;;25.60;38.78
71194;BME280;58903;47.210;8.618;2022-12-18T15:51:58;95138.19;;;25.56;38.81
71194;BME280;58903;47.210;8.618;2022-12-18T15:54:28;95135.19;;;25.54;38.70
71194;BME280;58903;47.210;8.618;2022-12-18T15:57:13;95133.44;;;25.51;38.48
71194;BME280;58903;47.210;8.618;2022-12-18T15:59:55;95135.41;;;25.51;39.56
71194;BME280;58903;47.210;8.618;2022-12-18T16:02:30;95137.94;;;25.54;38.64
71194;BME280;58903;47.210;8.618;2022-12-18T16:04:58;95140.94;;;25.56;39.19
71194;BME280;58903;47.210;8.618;2022-12-18T16:07:28;95134.19;;;25.57;38.85
71194;BME280;58903;47.210;8.618;2022-12-18T16:09:54;95136.47;;;25.59;38.55
71194;BME280;58903;47.210;8.618;2022-12-18T16:12:24;95136.19;;;25.57;38.58
71194;BME280;58903;47.210;8.618;2022-12-18T16:14:51;95128.69;;;25.57;39.10